Time;durP1;ratioP1;P1;durP2;ratioP2;P2;SDS_P1;SDS_P2;PMS_P1;PMS_P2;Temp;Humidity;BMP_temperature;BMP_pressure;BME280_temperature;BME280_humidity;BME280_pressure;Samples;Min_cycle;Max_cycle;Signal;HPM_P1;HPM_P2
2022/07/20 00:02:21;;;;;;;11.80;11.00;;;21.80;99.90;;;;;;5034127;28;20631;-59
2022/07/20 00:04:48;;;;;;;11.40;10.60;;;21.80;99.90;;;;;;5037374;28;20630;-59
2022/07/20 00:07:14;;;;;;;11.10;10.40;;;21.70;99.90;;;;;;5037339;28;20481;-57
2022/07/20 00:12:24;;;;;;;11.83;10.93;;;21.60;99.90;;;;;;5031531;28;20196;-58
2022/07/20 00:14:50;;;;;;;10.80;10.10;;;21.60;99.90;;;;;;5039907;28;21014;-59
2022/07/20 00:17:16;;;;;;;10.80;10.00;;;21.50;99.90;;;;;;5043684;28;20250;-59
2022/07/20 00:19:42;;;;;;;12.13;10.80;;;21.50;99.90;;;;;;5048144;28;20218;-59
2022/07/20 00:22:07;;;;;;;11.60;10.80;;;21.50;99.90;;;;;;5030708;28;20937;-59
2022/07/20 00:24:33;;;;;;;10.90;10.20;;;21.40;99.90;;;;;;5036901;28;20657;-59
2022/07/20 00:26:59;;;;;;;11.30;10.50;;;21.40;99.90;;;;;;5028202;28;20197;-59
2022/07/20 00:29:24;;;;;;;11.47;10.77;;;21.30;99.90;;;;;;5040226;28;20609;-57
2022/07/20 00:31:50;;;;;;;11.13;10.23;;;21.30;99.90;;;;;;5032726;28;21942;-59
2022/07/20 00:34:16;;;;;;;11.67;10.90;;;21.30;99.90;;;;;;5022756;28;20204;-58
2022/07/20 00:36:41;;;;;;;11.63;10.77;;;21.20;99.90;;;;;;5036264;28;20213;-58
2022/07/20 00:39:07;;;;;;;11.67;10.93;;;21.10;99.90;;;;;;5038430;28;20192;-58
2022/07/20 00:41:32;;;;;;;11.13;10.33;;;21.10;99.90;;;;;;5032424;28;20222;-58
2022/07/20 00:44:01;;;;;;;11.10;10.30;;;21.00;99.90;;;;;;5045827;28;20185;-58
2022/07/20 00:46:29;;;;;;;11.87;11.00;;;21.00;99.90;;;;;;5021622;28;20172;-58
2022/07/20 00:48:55;;;;;;;11.67;10.97;;;20.90;99.90;;;;;;5031089;28;20459;-58
2022/07/20 00:51:20;;;;;;;11.13;10.23;;;20.80;99.90;;;;;;5047117;28;20424;-57
2022/07/20 00:53:47;;;;;;;11.27;10.43;;;20.70;99.90;;;;;;5031151;28;20191;-57
2022/07/20 00:56:15;;;;;;;10.77;10.07;;;20.70;99.90;;;;;;5043258;28;20189;-59
2022/07/20 00:58:41;;;;;;;11.37;10.47;;;20.70;99.90;;;;;;5031689;28;20477;-59
2022/07/20 01:01:06;;;;;;;11.57;10.80;;;20.60;99.90;;;;;;5031081;28;22295;-59
2022/07/20 01:03:33;;;;;;;11.47;10.40;;;20.60;99.90;;;;;;5042087;28;20190;-58
2022/07/20 01:05:58;;;;;;;11.83;10.70;;;20.50;99.90;;;;;;5023604;28;20281;-58
2022/07/20 01:08:25;;;;;;;11.97;11.17;;;20.50;99.90;;;;;;5031911;28;20520;-59
2022/07/20 01:10:51;;;;;;;12.27;11.47;;;20.40;99.90;;;;;;5037415;28;20272;-59
2022/07/20 01:13:16;;;;;;;11.57;10.77;;;20.40;99.90;;;;;;5044178;28;20893;-59
2022/07/20 01:15:42;;;;;;;11.80;11.00;;;20.40;99.90;;;;;;5032700;28;20434;-59
2022/07/20 01:18:07;;;;;;;12.20;11.40;;;20.40;99.90;;;;;;5045301;28;20183;-59
2022/07/20 01:20:34;;;;;;;12.40;11.50;;;20.40;99.90;;;;;;5037334;28;20183;-58
2022/07/20 01:23:00;;;;;;;11.80;10.90;;;20.30;99.90;;;;;;5043009;28;20294;-58
2022/07/20 01:25:25;;;;;;;11.87;11.07;;;20.30;99.90;;;;;;5034766;28;20618;-58
2022/07/20 01:27:55;;;;;;;11.40;10.60;;;20.30;99.90;;;;;;5034431;28;20268;-59
2022/07/20 01:30:21;;;;;;;11.60;10.80;;;20.20;99.90;;;;;;5048878;28;20264;-59
2022/07/20 01:32:46;;;;;;;12.00;11.20;;;20.20;99.90;;;;;;5030746;28;20489;-59
2022/07/20 01:35:12;;;;;;;12.30;11.40;;;20.10;99.90;;;;;;5035724;28;20183;-59
2022/07/20 01:37:37;;;;;;;12.07;11.27;;;20.10;99.90;;;;;;5039121;28;20183;-59
2022/07/20 01:40:03;;;;;;;11.70;10.80;;;20.00;99.90;;;;;;5049569;28;20214;-59
2022/07/20 01:42:29;;;;;;;12.50;11.70;;;20.00;99.90;;;;;;5034767;28;20191;-59
2022/07/20 01:44:55;;;;;;;11.30;10.60;;;20.00;99.90;;;;;;5027976;28;20759;-59
2022/07/20 01:47:20;;;;;;;12.17;11.20;;;20.00;99.90;;;;;;5029238;28;20203;-59
2022/07/20 01:49:46;;;;;;;11.50;10.80;;;19.90;99.90;;;;;;5032625;28;20217;-59
2022/07/20 01:52:11;;;;;;;11.53;10.63;;;19.90;99.90;;;;;;5044566;28;20272;-57
2022/07/20 01:54:37;;;;;;;11.40;10.60;;;19.80;99.90;;;;;;5029355;28;20182;-59
2022/07/20 01:57:03;;;;;;;11.47;10.73;;;19.80;99.90;;;;;;5040087;28;20191;-59
2022/07/20 01:59:29;;;;;;;11.93;11.03;;;19.70;99.90;;;;;;5029026;28;20230;-57
2022/07/20 02:01:55;;;;;;;11.57;10.80;;;19.70;99.90;;;;;;5041425;28;20793;-58
2022/07/20 02:04:20;;;;;;;11.60;10.80;;;19.60;99.90;;;;;;5038361;28;20249;-58
2022/07/20 02:06:46;;;;;;;12.60;11.37;;;19.50;99.90;;;;;;5033633;28;20186;-59
2022/07/20 02:09:11;;;;;;;12.40;11.20;;;19.50;99.90;;;;;;5032614;28;20182;-59
2022/07/20 02:11:37;;;;;;;12.10;11.30;;;19.40;99.90;;;;;;5036104;28;20641;-59
2022/07/20 02:14:02;;;;;;;12.00;11.20;;;19.40;99.90;;;;;;5039440;28;20551;-58
2022/07/20 02:16:28;;;;;;;12.63;11.43;;;19.30;99.90;;;;;;5039032;28;20262;-58
2022/07/20 02:19:00;;;;;;;12.10;11.27;;;19.20;1.00;;;;;;5035057;28;20209;-56
2022/07/20 02:21:26;;;;;;;12.50;11.60;;;19.20;1.00;;;;;;5027179;28;20208;-58
2022/07/20 02:23:52;;;;;;;12.43;11.53;;;19.10;1.00;;;;;;5028249;28;20512;-58
2022/07/20 02:26:18;;;;;;;12.00;11.20;;;19.10;1.00;;;;;;5030454;28;20524;-61
2022/07/20 02:28:44;;;;;;;12.10;11.20;;;19.10;1.00;;;;;;5027312;28;20448;-59
2022/07/20 02:31:10;;;;;;;11.90;11.20;;;19.00;1.00;;;;;;5037676;28;20910;-59
2022/07/20 02:33:36;;;;;;;11.50;10.60;;;19.00;1.00;;;;;;5027990;28;20197;-59
2022/07/20 02:36:02;;;;;;;12.03;11.00;;;19.00;1.00;;;;;;5036836;28;21283;-56
2022/07/20 02:38:27;;;;;;;11.97;11.17;;;19.00;1.00;;;;;;5040187;28;20179;-59
2022/07/20 02:40:53;;;;;;;11.57;10.77;;;19.10;1.00;;;;;;5034971;28;20507;-58
2022/07/20 02:43:19;;;;;;;11.57;10.77;;;19.00;1.00;;;;;;5028040;28;20210;-59
2022/07/20 02:45:45;;;;;;;11.37;10.33;;;19.00;1.00;;;;;;5030066;28;20186;-58
2022/07/20 02:48:10;;;;;;;12.30;11.50;;;19.00;1.00;;;;;;5045985;28;20808;-59
2022/07/20 02:50:41;;;;;;;12.43;11.33;;;18.90;1.00;;;;;;5028830;28;20211;-58
2022/07/20 02:53:08;;;;;;;11.47;10.67;;;18.90;1.00;;;;;;5033188;28;20182;-59
2022/07/20 02:55:34;;;;;;;11.50;10.70;;;18.80;1.00;;;;;;5030063;28;20433;-58
2022/07/20 02:58:00;;;;;;;11.63;10.83;;;18.80;1.00;;;;;;5040184;28;20995;-59
2022/07/20 03:00:26;;;;;;;12.33;11.53;;;18.70;1.00;;;;;;5035919;28;20186;-60
2022/07/20 03:02:52;;;;;;;11.50;10.50;;;18.70;1.00;;;;;;5051732;28;20200;-59
2022/07/20 03:05:18;;;;;;;10.83;10.23;;;18.70;1.00;;;;;;5048820;28;20440;-58
2022/07/20 03:07:43;;;;;;;11.57;10.87;;;18.70;1.00;;;;;;5054103;28;20543;-59
2022/07/20 03:10:10;;;;;;;12.23;11.43;;;18.60;1.00;;;;;;5035947;28;20469;-60
2022/07/20 03:12:36;;;;;;;11.97;11.20;;;18.70;1.00;;;;;;5034109;28;20656;-59
2022/07/20 03:15:03;;;;;;;11.60;10.40;;;18.70;1.00;;;;;;5037711;28;20469;-60
2022/07/20 03:17:29;;;;;;;12.40;11.60;;;18.60;1.00;;;;;;5041949;28;20515;-57
2022/07/20 03:19:54;;;;;;;11.77;10.87;;;18.70;1.00;;;;;;5044631;28;20609;-60
2022/07/20 03:22:20;;;;;;;11.43;10.63;;;18.60;1.00;;;;;;5045655;28;20190;-59
2022/07/20 03:24:45;;;;;;;12.00;10.80;;;18.60;1.00;;;;;;5041096;28;20669;-58
2022/07/20 03:27:11;;;;;;;12.23;11.33;;;18.60;1.00;;;;;;5037124;28;20218;-60
2022/07/20 03:29:37;;;;;;;11.73;10.77;;;18.60;1.00;;;;;;5030899;28;20206;-59
2022/07/20 03:32:04;;;;;;;10.93;10.13;;;18.70;1.00;;;;;;5038007;28;20256;-59
2022/07/20 03:34:30;;;;;;;12.00;11.00;;;18.60;1.00;;;;;;5032134;28;20429;-59
2022/07/20 03:36:55;;;;;;;11.00;10.30;;;18.70;1.00;;;;;;5053017;28;21232;-56
2022/07/20 03:39:21;;;;;;;11.33;10.40;;;18.70;1.00;;;;;;5044803;28;20449;-59
2022/07/20 03:41:47;;;;;;;11.97;11.07;;;18.70;1.00;;;;;;5045209;28;20664;-55
2022/07/20 03:44:13;;;;;;;11.73;10.80;;;18.70;1.00;;;;;;5046876;28;20526;-60
2022/07/20 03:46:38;;;;;;;11.37;10.57;;;18.70;1.00;;;;;;5036003;28;20739;-57
2022/07/20 03:49:04;;;;;;;11.80;10.93;;;18.70;1.00;;;;;;5033006;28;20202;-57
2022/07/20 03:51:30;;;;;;;11.07;10.13;;;18.80;1.00;;;;;;5039388;28;20189;-60
2022/07/20 03:53:55;;;;;;;12.00;11.00;;;18.80;1.00;;;;;;5031677;28;20191;-57
2022/07/20 03:56:21;;;;;;;11.90;10.70;;;18.80;1.00;;;;;;5038831;28;20178;-58
2022/07/20 03:58:47;;;;;;;11.53;10.73;;;18.80;1.00;;;;;;5045052;28;20233;-56
2022/07/20 04:01:12;;;;;;;11.70;10.80;;;18.80;1.00;;;;;;5042715;28;20227;-53
2022/07/20 04:03:38;;;;;;;11.40;10.40;;;18.80;1.00;;;;;;5035270;28;20684;-51
2022/07/20 04:06:04;;;;;;;11.70;10.90;;;18.90;1.00;;;;;;5039194;28;20269;-53
2022/07/20 04:08:29;;;;;;;11.93;11.07;;;18.90;1.00;;;;;;5036324;28;20186;-56
2022/07/20 04:10:55;;;;;;;11.73;10.83;;;18.90;1.00;;;;;;5036853;28;20475;-56
2022/07/20 04:13:21;;;;;;;11.17;10.47;;;18.90;1.00;;;;;;5041971;28;20245;-56
2022/07/20 04:15:46;;;;;;;11.60;10.80;;;18.90;1.00;;;;;;5020743;28;20446;-57
2022/07/20 04:18:15;;;;;;;11.27;10.47;;;19.00;1.00;;;;;;5035138;28;20190;-57
2022/07/20 04:20:41;;;;;;;11.77;10.83;;;19.10;1.00;;;;;;5021247;28;20775;-55
2022/07/20 04:23:07;;;;;;;12.07;10.83;;;19.20;1.00;;;;;;5039157;28;20428;-55
2022/07/20 04:25:33;;;;;;;11.73;10.87;;;19.20;1.00;;;;;;5028689;28;20441;-54
2022/07/20 04:27:59;;;;;;;11.97;10.97;;;19.20;1.00;;;;;;5038520;28;21197;-55
2022/07/20 04:30:24;;;;;;;10.97;10.13;;;19.30;1.00;;;;;;5032974;28;20211;-56
2022/07/20 04:32:50;;;;;;;10.67;9.93;;;19.30;1.00;;;;;;5037600;28;20903;-57
2022/07/20 04:35:15;;;;;;;11.50;10.70;;;19.50;1.00;;;;;;5027376;28;20182;-58
2022/07/20 04:37:41;;;;;;;13.40;10.87;;;19.50;1.00;;;;;;5043733;28;20965;-56
2022/07/20 04:40:07;;;;;;;10.80;10.10;;;19.60;1.00;;;;;;5040063;28;20190;-55
2022/07/20 04:42:33;;;;;;;10.90;10.10;;;19.60;1.00;;;;;;5041923;28;20187;-56
2022/07/20 04:44:59;;;;;;;11.03;10.33;;;19.70;99.90;;;;;;5027952;28;20516;-54
2022/07/20 04:47:24;;;;;;;11.27;10.27;;;19.80;99.90;;;;;;5048460;28;20531;-55
2022/07/20 04:49:50;;;;;;;11.70;10.70;;;19.90;99.90;;;;;;5045356;28;20207;-54
2022/07/20 04:52:16;;;;;;;11.17;10.37;;;20.00;99.90;;;;;;5040547;28;20187;-55
2022/07/20 04:54:42;;;;;;;10.93;10.13;;;20.10;99.90;;;;;;5041305;28;20187;-55
2022/07/20 04:57:08;;;;;;;12.10;11.00;;;20.10;99.90;;;;;;5044499;28;20179;-55
2022/07/20 04:59:33;;;;;;;11.07;10.20;;;20.20;99.90;;;;;;5030129;28;20561;-51
2022/07/20 05:01:59;;;;;;;11.20;10.10;;;20.30;99.90;;;;;;5028662;28;20864;-54
2022/07/20 05:04:25;;;;;;;11.70;10.53;;;20.40;99.90;;;;;;5030364;28;20630;-55
2022/07/20 05:06:51;;;;;;;11.37;10.33;;;20.50;99.90;;;;;;5029497;28;20453;-56
2022/07/20 05:09:16;;;;;;;10.77;9.93;;;20.60;99.90;;;;;;5030051;28;20258;-55
2022/07/20 05:11:42;;;;;;;11.27;10.47;;;20.60;99.90;;;;;;5029070;28;20253;-54
2022/07/20 05:14:10;;;;;;;11.87;10.73;;;20.70;99.90;;;;;;5030184;28;20178;-57
2022/07/20 05:16:37;;;;;;;10.73;10.03;;;20.80;99.90;;;;;;5029064;28;20167;-57
2022/07/20 05:19:02;;;;;;;10.93;10.10;;;20.80;99.90;;;;;;5029756;28;20406;-57
2022/07/20 05:21:28;;;;;;;11.97;10.80;;;20.90;99.90;;;;;;5027364;28;21413;-55
2022/07/20 05:23:54;;;;;;;11.30;10.50;;;21.00;99.90;;;;;;5028113;28;20448;-55
2022/07/20 05:26:19;;;;;;;10.93;10.23;;;21.00;99.90;;;;;;5029695;28;20215;-52
2022/07/20 05:28:45;;;;;;;10.33;9.60;;;21.20;99.90;;;;;;5028711;28;20184;-56
2022/07/20 05:31:13;;;;;;;11.10;10.40;;;21.30;99.90;;;;;;5028456;28;20960;-56
2022/07/20 05:33:40;;;;;;;11.30;10.40;;;21.50;99.90;;;;;;5029820;28;20166;-55
2022/07/20 05:36:05;;;;;;;11.73;10.73;;;21.50;99.90;;;;;;5026760;28;20432;-56
2022/07/20 05:38:31;;;;;;;11.03;10.23;;;21.50;99.90;;;;;;5020407;28;20454;-56
2022/07/20 05:40:57;;;;;;;11.47;10.37;;;21.60;99.90;;;;;;5029568;28;20224;-56
2022/07/20 05:43:22;;;;;;;10.80;10.00;;;21.80;99.90;;;;;;5023284;28;20273;-57
2022/07/20 05:45:48;;;;;;;10.60;9.80;;;21.90;99.90;;;;;;5022754;28;20186;-55
2022/07/20 05:48:15;;;;;;;11.53;10.37;;;22.00;99.90;;;;;;5030077;28;20209;-57
2022/07/20 05:50:42;;;;;;;10.70;9.80;;;22.10;99.90;;;;;;5035209;28;20212;-56
2022/07/20 05:53:09;;;;;;;10.77;10.00;;;22.20;99.90;;;;;;5040678;28;20419;-51
2022/07/20 05:55:35;;;;;;;10.87;9.93;;;22.40;99.90;;;;;;5031615;28;20814;-57
2022/07/20 05:58:02;;;;;;;10.13;9.40;;;22.40;99.90;;;;;;5047895;28;20541;-56
2022/07/20 06:00:28;;;;;;;11.10;10.13;;;22.60;99.90;;;;;;5029432;28;20513;-55
2022/07/20 06:02:53;;;;;;;9.93;9.20;;;22.60;99.90;;;;;;5045923;28;20513;-53
2022/07/20 06:05:19;;;;;;;10.03;9.23;;;22.80;99.90;;;;;;5031695;28;20433;-57
2022/07/20 06:07:45;;;;;;;10.43;9.83;;;23.00;99.90;;;;;;5032435;28;20198;-52
2022/07/20 06:10:10;;;;;;;10.77;9.97;;;23.20;99.90;;;;;;5028713;28;20289;-56
2022/07/20 06:12:36;;;;;;;10.00;9.40;;;23.30;99.90;;;;;;5029368;28;20193;-57
2022/07/20 06:15:02;;;;;;;10.60;9.67;;;23.40;99.90;;;;;;5028905;28;20304;-55
2022/07/20 06:17:38;;;;;;;9.63;8.93;;;23.50;99.90;;;;;;5027690;28;20179;-54
2022/07/20 06:20:07;;;;;;;10.87;9.87;;;23.80;99.90;;;;;;5030049;28;20445;-55
2022/07/20 06:22:34;;;;;;;10.13;9.30;;;23.80;99.90;;;;;;5024679;28;20759;-55
2022/07/20 06:25:00;;;;;;;10.20;9.40;;;24.10;99.90;;;;;;5025903;28;20552;-57
2022/07/20 06:27:26;;;;;;;9.77;9.17;;;24.10;99.90;;;;;;5028182;28;21332;-57
2022/07/20 06:29:51;;;;;;;10.50;9.63;;;24.30;99.90;;;;;;5027957;28;20210;-56
2022/07/20 06:32:17;;;;;;;10.80;9.93;;;24.50;99.90;;;;;;5037958;28;20693;-57
2022/07/20 06:34:42;;;;;;;10.60;9.57;;;24.60;99.90;;;;;;5037921;28;20197;-57
2022/07/20 06:37:08;;;;;;;10.43;9.40;;;24.70;99.90;;;;;;5051731;28;20190;-56
2022/07/20 06:39:34;;;;;;;9.50;8.80;;;24.90;99.90;;;;;;5033790;28;20209;-53
2022/07/20 06:41:59;;;;;;;10.30;9.60;;;25.10;99.90;;;;;;5032943;28;20186;-55
2022/07/20 06:44:25;;;;;;;10.23;9.60;;;25.20;99.90;;;;;;5031792;28;20186;-56
2022/07/20 06:46:50;;;;;;;10.17;9.50;;;25.30;99.90;;;;;;5033119;28;20212;-57
2022/07/20 06:49:16;;;;;;;10.07;9.37;;;25.50;99.90;;;;;;5036109;28;20647;-54
2022/07/20 06:51:41;;;;;;;9.93;9.13;;;25.70;99.90;;;;;;5042424;28;20215;-51
2022/07/20 06:54:07;;;;;;;11.20;10.30;;;25.90;99.90;;;;;;5036844;28;20179;-54
2022/07/20 06:56:33;;;;;;;9.93;9.23;;;26.00;99.90;;;;;;5035203;28;20187;-55
2022/07/20 06:58:58;;;;;;;10.10;9.20;;;26.10;99.90;;;;;;5031651;28;20788;-52
2022/07/20 07:01:24;;;;;;;10.57;9.87;;;26.20;99.90;;;;;;5036010;28;20186;-55
2022/07/20 07:03:50;;;;;;;10.20;9.53;;;26.40;99.90;;;;;;5043344;28;20682;-56
2022/07/20 07:06:16;;;;;;;10.47;9.80;;;26.60;99.90;;;;;;5033683;28;20239;-53
2022/07/20 07:08:42;;;;;;;10.83;9.40;;;26.70;99.90;;;;;;5052403;28;20215;-56
2022/07/20 07:11:07;;;;;;;9.77;9.07;;;26.80;99.90;;;;;;5037974;28;20468;-55
2022/07/20 07:13:33;;;;;;;9.53;8.63;;;27.00;99.90;;;;;;5032481;28;20228;-57
2022/07/20 07:15:59;;;;;;;10.00;9.17;;;27.20;99.90;;;;;;5016934;28;20226;-52
2022/07/20 07:18:24;;;;;;;10.03;9.43;;;27.30;99.90;;;;;;5045744;28;20193;-52
2022/07/20 07:20:50;;;;;;;9.77;9.07;;;27.50;99.90;;;;;;5042293;28;20684;-54
2022/07/20 07:23:15;;;;;;;9.03;8.40;;;27.70;99.90;;;;;;5028007;28;20198;-56
2022/07/20 07:25:41;;;;;;;9.53;8.83;;;27.80;99.90;;;;;;5027100;28;20190;-56
2022/07/20 07:28:07;;;;;;;8.80;8.10;;;28.10;99.00;;;;;;5029382;28;20252;-56
2022/07/20 07:30:33;;;;;;;8.80;8.20;;;28.20;96.70;;;;;;5028583;28;20649;-54
2022/07/20 07:32:58;;;;;;;9.63;8.83;;;28.30;95.70;;;;;;5030018;28;20262;-57
2022/07/20 07:35:24;;;;;;;10.03;9.20;;;28.40;95.20;;;;;;5029366;28;20196;-55
2022/07/20 07:37:50;;;;;;;8.70;8.10;;;28.70;94.50;;;;;;5029877;28;20912;-55
2022/07/20 07:40:16;;;;;;;8.90;8.20;;;28.80;91.80;;;;;;5029693;28;20243;-57
2022/07/20 07:42:41;;;;;;;9.23;8.43;;;28.90;90.60;;;;;;5009263;28;20223;-56
2022/07/20 07:45:08;;;;;;;9.53;8.77;;;29.00;90.70;;;;;;5017409;28;20652;-54
2022/07/20 07:47:34;;;;;;;9.33;8.63;;;29.20;90.00;;;;;;5036660;28;20646;-57
2022/07/20 07:50:00;;;;;;;9.57;8.87;;;29.30;85.80;;;;;;5045459;28;20931;-56
2022/07/20 07:52:26;;;;;;;9.13;8.50;;;29.40;81.50;;;;;;5029212;28;20799;-55
2022/07/20 07:54:52;;;;;;;8.93;8.43;;;29.60;79.20;;;;;;5031368;28;20929;-56
2022/07/20 07:57:18;;;;;;;9.53;8.70;;;29.70;76.30;;;;;;5033991;28;20467;-55
2022/07/20 07:59:43;;;;;;;9.67;8.77;;;29.80;76.10;;;;;;5029622;28;20241;-56
2022/07/20 08:02:09;;;;;;;9.60;8.80;;;29.80;74.40;;;;;;5029026;28;20185;-56
2022/07/20 08:04:35;;;;;;;9.00;8.40;;;29.80;75.60;;;;;;5029713;28;20183;-57
2022/07/20 08:07:00;;;;;;;9.47;8.50;;;30.00;71.20;;;;;;5027929;28;20639;-57
2022/07/20 08:09:26;;;;;;;9.73;8.73;;;30.20;70.90;;;;;;5026270;28;21015;-56
2022/07/20 08:11:52;;;;;;;8.90;8.20;;;30.30;67.40;;;;;;5027162;28;20746;-56
2022/07/20 08:14:17;;;;;;;8.43;7.83;;;30.50;66.30;;;;;;5032755;28;20214;-55
2022/07/20 08:16:43;;;;;;;8.30;7.70;;;30.70;62.50;;;;;;5025316;28;20516;-54
2022/07/20 08:19:10;;;;;;;9.20;8.33;;;30.90;61.20;;;;;;5019383;28;20206;-58
2022/07/20 08:21:35;;;;;;;8.30;7.70;;;31.10;59.20;;;;;;5042127;28;20197;-55
2022/07/20 08:24:04;;;;;;;9.07;8.40;;;31.20;59.40;;;;;;5036943;28;20421;-56
2022/07/20 08:26:31;;;;;;;9.00;8.40;;;31.50;58.00;;;;;;5040868;28;20183;-57
2022/07/20 08:28:56;;;;;;;9.30;8.60;;;31.60;54.60;;;;;;5028760;28;20596;-56
2022/07/20 08:31:22;;;;;;;8.50;7.90;;;31.80;52.00;;;;;;5031576;28;20518;-56
2022/07/20 08:33:48;;;;;;;8.60;7.90;;;31.90;52.20;;;;;;5037355;28;20186;-58
2022/07/20 08:36:13;;;;;;;8.20;7.50;;;31.90;51.50;;;;;;5032163;28;20179;-58
2022/07/20 08:38:39;;;;;;;7.83;7.33;;;32.00;50.50;;;;;;5028165;28;20230;-56
2022/07/20 08:41:07;;;;;;;7.37;6.97;;;32.20;46.40;;;;;;5034372;28;20191;-58
2022/07/20 08:43:33;;;;;;;8.03;7.30;;;32.40;44.80;;;;;;5036598;28;20237;-56
2022/07/20 08:45:59;;;;;;;7.80;7.30;;;32.50;43.60;;;;;;5027436;28;20442;-58
2022/07/20 08:48:26;;;;;;;7.90;7.40;;;32.60;42.80;;;;;;5039757;28;20262;-56
2022/07/20 08:50:52;;;;;;;8.27;7.80;;;32.70;42.20;;;;;;5036618;28;20210;-55
2022/07/20 08:53:19;;;;;;;8.07;7.53;;;32.80;41.40;;;;;;5041213;28;20432;-56
2022/07/20 08:55:45;;;;;;;8.37;7.87;;;32.90;39.60;;;;;;5034243;28;20929;-57
2022/07/20 08:58:12;;;;;;;8.20;7.70;;;33.20;38.50;;;;;;5028025;28;20497;-57
2022/07/20 09:00:39;;;;;;;7.57;7.07;;;33.40;37.40;;;;;;5046598;28;20424;-56
2022/07/20 09:03:06;;;;;;;7.40;6.83;;;33.50;36.40;;;;;;5034904;28;20775;-58
2022/07/20 09:05:35;;;;;;;7.80;7.10;;;33.60;33.50;;;;;;5028032;28;20433;-57
2022/07/20 09:08:02;;;;;;;8.33;7.77;;;33.70;34.10;;;;;;5027446;28;20513;-57
2022/07/20 09:10:34;;;;;;;8.57;7.97;;;33.90;33.80;;;;;;5027984;28;20468;-58
2022/07/20 09:13:04;;;;;;;7.53;7.00;;;34.10;31.70;;;;;;5027618;28;20433;-57
2022/07/20 09:15:40;;;;;;;8.37;7.77;;;34.20;29.70;;;;;;5028921;28;20958;-57
2022/07/20 09:18:10;;;;;;;7.57;7.13;;;34.10;29.20;;;;;;5034042;28;20504;-57
2022/07/20 09:20:40;;;;;;;7.27;6.77;;;34.30;29.70;;;;;;5030855;28;20449;-56
2022/07/20 09:23:12;;;;;;;7.23;6.87;;;34.50;26.70;;;;;;5026927;28;20453;-58
2022/07/20 09:25:53;;;;;;;7.60;7.10;;;34.70;26.20;;;;;;5028052;28;20467;-56
2022/07/20 09:28:20;;;;;;;7.10;6.60;;;35.00;24.10;;;;;;5018595;28;20440;-55
2022/07/20 09:30:55;;;;;;;7.23;6.73;;;35.00;22.20;;;;;;5028004;28;20461;-54
2022/07/20 09:33:28;;;;;;;8.30;7.57;;;35.10;20.70;;;;;;5027177;28;20417;-55
2022/07/20 09:35:55;;;;;;;7.10;6.70;;;35.00;19.60;;;;;;5027825;28;20467;-56
2022/07/20 09:38:30;;;;;;;7.17;6.77;;;34.80;19.70;;;;;;5025726;28;20508;-55
2022/07/20 09:40:56;;;;;;;6.50;6.17;;;34.80;19.30;;;;;;5009235;28;20432;-56
2022/07/20 09:43:30;;;;;;;8.07;7.40;;;34.90;19.70;;;;;;5027275;28;20445;-58
2022/07/20 09:46:13;;;;;;;7.73;7.13;;;35.00;19.00;;;;;;5027447;28;20274;-56
2022/07/20 09:48:43;;;;;;;7.83;7.23;;;35.20;17.90;;;;;;5027316;28;20421;-55
2022/07/20 09:51:30;;;;;;;7.50;7.00;;;35.30;17.30;;;;;;5026375;28;20564;-56
2022/07/20 09:53:58;;;;;;;7.90;7.30;;;35.30;16.50;;;;;;5027047;28;20410;-57
2022/07/20 09:56:25;;;;;;;7.30;6.70;;;35.20;16.40;;;;;;5026524;28;20483;-56
2022/07/20 09:58:53;;;;;;;7.10;6.70;;;35.20;15.80;;;;;;5027574;28;20495;-56
2022/07/20 10:01:25;;;;;;;7.77;7.23;;;35.20;16.00;;;;;;5027024;28;20437;-56
2022/07/20 10:03:53;;;;;;;7.37;6.50;;;35.30;14.90;;;;;;5027397;28;20416;-55
2022/07/20 10:06:22;;;;;;;7.20;6.80;;;35.20;14.70;;;;;;5026409;28;20845;-55
2022/07/20 10:08:48;;;;;;;8.03;7.43;;;35.20;14.00;;;;;;5027855;28;20804;-56
2022/07/20 10:11:15;;;;;;;7.57;7.07;;;35.40;14.20;;;;;;5027623;28;20534;-56
2022/07/20 10:13:43;;;;;;;7.30;6.90;;;35.40;13.20;;;;;;5006192;28;20828;-56
2022/07/20 10:16:14;;;;;;;6.50;6.20;;;35.50;12.90;;;;;;5016948;28;20453;-56
2022/07/20 10:18:45;;;;;;;7.07;6.47;;;35.50;12.10;;;;;;5027287;28;20451;-53
2022/07/20 10:21:36;;;;;;;7.63;7.10;;;35.50;12.00;;;;;;5025679;28;20488;-57
2022/07/20 10:24:30;;;;;;;7.90;7.30;;;35.60;11.60;;;;;;5027075;28;20496;-57
2022/07/20 10:27:02;;;;;;;7.83;7.20;;;35.50;10.80;;;;;;5026321;28;20469;-56
2022/07/20 10:29:39;;;;;;;7.83;7.23;;;35.60;10.80;;;;;;5027223;28;20417;-56
2022/07/20 10:32:24;;;;;;;7.73;7.13;;;35.60;20.60;;;;;;5026212;28;20497;-55
2022/07/20 10:34:59;;;;;;;8.30;7.73;;;35.80;9.80;;;;;;5027391;28;20430;-57
2022/07/20 10:37:35;;;;;;;7.50;7.00;;;36.00;10.20;;;;;;5026428;28;20495;-57
2022/07/20 10:40:06;;;;;;;7.13;6.63;;;36.10;9.00;;;;;;5026091;28;20417;-57
2022/07/20 10:42:33;;;;;;;7.47;6.97;;;36.30;8.50;;;;;;5026418;28;20521;-58
2022/07/20 10:45:15;;;;;;;7.77;7.10;;;36.30;8.60;;;;;;5030421;28;20432;-58
2022/07/20 10:47:55;;;;;;;8.27;7.63;;;36.50;8.30;;;;;;5020384;28;20425;-54
2022/07/20 10:50:28;;;;;;;7.70;7.20;;;36.50;7.00;;;;;;5020468;28;20469;-57
2022/07/20 10:52:56;;;;;;;8.00;7.07;;;36.60;8.00;;;;;;5028727;28;20428;-57
2022/07/20 10:55:34;;;;;;;7.60;7.20;;;36.70;7.30;;;;;;5035071;28;20418;-57
2022/07/20 10:58:05;;;;;;;8.10;7.50;;;37.00;6.60;;;;;;5024661;28;20469;-57
2022/07/20 11:00:35;;;;;;;7.63;7.23;;;37.10;6.30;;;;;;5025941;28;20465;-57
2022/07/20 11:03:03;;;;;;;7.47;6.93;;;37.10;4.90;;;;;;5025825;28;20473;-55
2022/07/20 11:05:28;;;;;;;7.73;7.10;;;37.10;4.90;;;;;;5026741;28;20409;-56
2022/07/20 11:07:54;;;;;;;8.20;7.53;;;37.00;5.30;;;;;;5025278;28;20424;-58
2022/07/20 11:10:26;;;;;;;7.83;7.33;;;37.10;4.20;;;;;;5026728;28;20294;-56
2022/07/20 11:13:00;;;;;;;7.80;7.40;;;37.10;2.90;;;;;;5018395;28;20222;-58
2022/07/20 11:15:44;;;;;;;8.57;7.97;;;37.10;3.90;;;;;;5020258;28;20421;-56
2022/07/20 11:18:12;;;;;;;8.03;7.33;;;37.10;2.80;;;;;;5024848;28;20440;-56
2022/07/20 11:20:46;;;;;;;8.07;7.60;;;37.00;3.00;;;;;;5028675;28;21338;-56
2022/07/20 11:23:13;;;;;;;7.90;7.50;;;37.00;3.00;;;;;;5028398;28;20429;-56
2022/07/20 11:25:52;;;;;;;7.90;7.20;;;37.10;3.30;;;;;;5029010;28;20501;-56
2022/07/20 11:28:24;;;;;;;8.10;7.53;;;37.20;3.20;;;;;;5026163;28;20783;-56
2022/07/20 11:30:51;;;;;;;7.53;7.13;;;37.40;2.70;;;;;;5028276;28;20472;-57
2022/07/20 11:33:29;;;;;;;8.43;7.70;;;37.40;1.50;;;;;;5027807;28;20843;-56
2022/07/20 11:36:01;;;;;;;7.53;6.83;;;37.50;1.90;;;;;;5029049;28;20409;-54
2022/07/20 11:38:38;;;;;;;7.47;6.97;;;37.40;2.50;;;;;;5028404;28;20429;-56
2022/07/20 11:41:07;;;;;;;7.93;7.40;;;37.30;1.20;;;;;;5026678;28;20452;-57
2022/07/20 11:43:33;;;;;;;7.57;6.97;;;37.30;1.30;;;;;;5027423;28;20539;-58
2022/07/20 11:46:23;;;;;;;7.83;7.20;;;37.10;1.50;;;;;;5028346;28;20536;-56
2022/07/20 11:48:56;;;;;;;7.67;7.17;;;37.20;1.30;;;;;;5026503;28;20259;-57
2022/07/20 11:51:22;;;;;;;8.13;7.57;;;37.40;1.40;;;;;;5027096;28;20536;-57
2022/07/20 11:53:48;;;;;;;8.13;7.60;;;37.60;1.20;;;;;;5028979;28;20559;-57
2022/07/20 11:56:16;;;;;;;7.60;7.10;;;37.90;1.00;;;;;;5029948;28;20175;-56
2022/07/20 11:58:43;;;;;;;8.50;7.70;;;38.30;1.00;;;;;;5028642;28;20952;-57
2022/07/20 12:01:13;;;;;;;8.00;7.40;;;38.50;1.00;;;;;;5029561;28;20521;-55
2022/07/20 12:03:41;;;;;;;7.23;6.83;;;38.60;1.00;;;;;;5028292;28;20461;-56
2022/07/20 12:06:14;;;;;;;7.00;6.60;;;38.80;1.00;;;;;;5029732;28;20409;-57
2022/07/20 12:08:41;;;;;;;6.60;6.10;;;38.80;1.00;;;;;;5028570;28;20757;-55
2022/07/20 12:11:08;;;;;;;8.90;7.00;;;39.10;1.00;;;;;;5030414;28;20525;-57
2022/07/20 12:13:48;;;;;;;7.53;7.00;;;39.20;1.00;;;;;;5041211;28;20503;-57
2022/07/20 12:16:15;;;;;;;7.43;6.93;;;39.50;1.00;;;;;;5038048;28;20490;-57
2022/07/20 12:18:47;;;;;;;6.60;6.10;;;39.70;1.00;;;;;;5047663;28;20449;-57
2022/07/20 12:21:15;;;;;;;7.40;6.80;;;39.60;1.00;;;;;;5037131;28;20412;-57
2022/07/20 12:23:43;;;;;;;6.73;6.33;;;39.50;1.00;;;;;;5048368;28;20499;-57
2022/07/20 12:26:30;;;;;;;7.53;6.87;;;39.40;1.00;;;;;;5037553;28;20425;-58
2022/07/20 12:29:16;;;;;;;8.20;7.60;;;39.20;1.00;;;;;;5029449;28;20994;-56
2022/07/20 12:31:42;;;;;;;7.37;6.87;;;39.50;1.00;;;;;;5027596;28;20450;-57
2022/07/20 12:34:11;;;;;;;7.90;7.40;;;39.60;1.00;;;;;;5027819;28;20787;-57
2022/07/20 12:36:46;;;;;;;8.00;7.33;;;39.80;1.00;;;;;;5009286;28;20816;-58
2022/07/20 12:39:15;;;;;;;7.53;7.10;;;39.80;1.00;;;;;;5023661;28;20891;-57
2022/07/20 12:41:42;;;;;;;7.53;7.03;;;40.00;1.00;;;;;;5026674;28;20441;-57
2022/07/20 12:44:28;;;;;;;6.83;6.43;;;40.20;1.00;;;;;;5028367;28;20425;-57
2022/07/20 12:46:55;;;;;;;8.60;7.70;;;40.20;1.00;;;;;;5009005;28;20897;-58